sensor_id;sensor_type;location;lat;lon;timestamp;P1;durP1;ratioP1;P2;durP2;ratioP2
74510;SDS011;62991;50.040;18.400;2023-07-31T00:02:37;4.80;;;1.77;;
74510;SDS011;62991;50.040;18.400;2023-07-31T00:05:37;3.70;;;1.85;;
74510;SDS011;62991;50.040;18.400;2023-07-31T00:08:38;2.78;;;1.45;;
74510;SDS011;62991;50.040;18.400;2023-07-31T00:11:39;4.32;;;1.70;;
74510;SDS011;62991;50.040;18.400;2023-07-31T00:14:39;3.40;;;1.40;;
74510;SDS011;62991;50.040;18.400;2023-07-31T00:17:40;3.75;;;1.35;;
74510;SDS011;62991;50.040;18.400;2023-07-31T00:20:41;6.75;;;2.10;;
74510;SDS011;62991;50.040;18.400;2023-07-31T00:23:41;7.40;;;3.00;;
74510;SDS011;62991;50.040;18.400;2023-07-31T00:26:42;8.90;;;2.20;;
74510;SDS011;62991;50.040;18.400;2023-07-31T00:29:43;3.53;;;1.77;;
74510;SDS011;62991;50.040;18.400;2023-07-31T00:32:43;9.95;;;3.20;;
74510;SDS011;62991;50.040;18.400;2023-07-31T00:35:44;9.27;;;4.28;;
74510;SDS011;62991;50.040;18.400;2023-07-31T00:38:44;6.43;;;2.20;;
74510;SDS011;62991;50.040;18.400;2023-07-31T00:41:45;3.05;;;1.48;;
74510;SDS011;62991;50.040;18.400;2023-07-31T00:44:46;2.70;;;1.48;;
74510;SDS011;62991;50.040;18.400;2023-07-31T00:47:46;3.38;;;1.75;;
74510;SDS011;62991;50.040;18.400;2023-07-31T00:50:47;2.88;;;1.30;;
74510;SDS011;62991;50.040;18.400;2023-07-31T00:53:48;3.65;;;1.50;;
74510;SDS011;62991;50.040;18.400;2023-07-31T00:56:49;4.00;;;1.55;;
74510;SDS011;62991;50.040;18.400;2023-07-31T00:59:52;2.95;;;1.40;;
74510;SDS011;62991;50.040;18.400;2023-07-31T01:02:53;3.13;;;1.70;;
74510;SDS011;62991;50.040;18.400;2023-07-31T01:12:43;2.30;;;1.42;;
74510;SDS011;62991;50.040;18.400;2023-07-31T01:15:45;2.35;;;1.30;;
74510;SDS011;62991;50.040;18.400;2023-07-31T01:18:46;3.25;;;1.42;;
74510;SDS011;62991;50.040;18.400;2023-07-31T01:21:57;2.40;;;1.23;;
74510;SDS011;62991;50.040;18.400;2023-07-31T01:29:01;2.42;;;1.27;;
74510;SDS011;62991;50.040;18.400;2023-07-31T01:32:06;5.03;;;1.88;;
74510;SDS011;62991;50.040;18.400;2023-07-31T01:35:09;5.75;;;2.10;;
74510;SDS011;62991;50.040;18.400;2023-07-31T01:38:10;6.35;;;2.22;;
74510;SDS011;62991;50.040;18.400;2023-07-31T01:41:11;4.82;;;1.77;;
74510;SDS011;62991;50.040;18.400;2023-07-31T01:44:12;6.72;;;2.78;;
74510;SDS011;62991;50.040;18.400;2023-07-31T01:47:13;7.57;;;2.22;;
74510;SDS011;62991;50.040;18.400;2023-07-31T01:50:13;5.15;;;1.90;;
74510;SDS011;62991;50.040;18.400;2023-07-31T01:53:14;4.00;;;1.70;;
74510;SDS011;62991;50.040;18.400;2023-07-31T01:56:15;9.32;;;2.20;;
74510;SDS011;62991;50.040;18.400;2023-07-31T01:59:15;6.60;;;2.75;;
74510;SDS011;62991;50.040;18.400;2023-07-31T02:02:16;7.57;;;2.20;;
74510;SDS011;62991;50.040;18.400;2023-07-31T02:05:17;3.00;;;1.80;;
74510;SDS011;62991;50.040;18.400;2023-07-31T02:08:17;4.63;;;1.70;;
74510;SDS011;62991;50.040;18.400;2023-07-31T02:11:18;3.08;;;1.38;;
74510;SDS011;62991;50.040;18.400;2023-07-31T02:14:19;2.13;;;1.20;;
74510;SDS011;62991;50.040;18.400;2023-07-31T02:17:19;3.63;;;1.50;;
74510;SDS011;62991;50.040;18.400;2023-07-31T02:20:21;2.40;;;1.40;;
74510;SDS011;62991;50.040;18.400;2023-07-31T02:23:21;2.47;;;1.20;;
74510;SDS011;62991;50.040;18.400;2023-07-31T02:26:22;3.22;;;1.30;;
74510;SDS011;62991;50.040;18.400;2023-07-31T02:29:22;1.70;;;1.10;;
74510;SDS011;62991;50.040;18.400;2023-07-31T02:32:23;2.17;;;1.30;;
74510;SDS011;62991;50.040;18.400;2023-07-31T02:35:24;2.53;;;1.33;;
74510;SDS011;62991;50.040;18.400;2023-07-31T02:38:24;4.15;;;1.27;;
74510;SDS011;62991;50.040;18.400;2023-07-31T02:41:25;1.83;;;1.23;;
74510;SDS011;62991;50.040;18.400;2023-07-31T02:44:26;7.45;;;1.63;;
74510;SDS011;62991;50.040;18.400;2023-07-31T02:47:26;2.63;;;1.00;;
74510;SDS011;62991;50.040;18.400;2023-07-31T02:50:27;2.67;;;1.30;;
74510;SDS011;62991;50.040;18.400;2023-07-31T02:53:28;2.53;;;1.40;;
74510;SDS011;62991;50.040;18.400;2023-07-31T02:56:29;4.93;;;1.25;;
74510;SDS011;62991;50.040;18.400;2023-07-31T02:59:30;2.08;;;1.20;;
74510;SDS011;62991;50.040;18.400;2023-07-31T03:02:30;3.22;;;1.50;;
74510;SDS011;62991;50.040;18.400;2023-07-31T03:05:31;4.63;;;1.33;;
74510;SDS011;62991;50.040;18.400;2023-07-31T03:08:31;2.67;;;1.40;;
74510;SDS011;62991;50.040;18.400;2023-07-31T03:11:32;1.67;;;0.95;;
74510;SDS011;62991;50.040;18.400;2023-07-31T03:14:33;4.60;;;1.65;;
74510;SDS011;62991;50.040;18.400;2023-07-31T03:17:33;5.60;;;1.30;;
74510;SDS011;62991;50.040;18.400;2023-07-31T03:20:34;2.67;;;1.40;;
74510;SDS011;62991;50.040;18.400;2023-07-31T03:23:34;4.07;;;1.30;;
74510;SDS011;62991;50.040;18.400;2023-07-31T03:26:35;5.55;;;1.52;;
74510;SDS011;62991;50.040;18.400;2023-07-31T03:29:36;3.15;;;1.20;;
74510;SDS011;62991;50.040;18.400;2023-07-31T03:32:37;4.15;;;1.15;;
74510;SDS011;62991;50.040;18.400;2023-07-31T03:35:38;3.35;;;1.40;;
74510;SDS011;62991;50.040;18.400;2023-07-31T03:38:38;2.60;;;1.38;;
74510;SDS011;62991;50.040;18.400;2023-07-31T03:41:39;2.25;;;1.20;;
74510;SDS011;62991;50.040;18.400;2023-07-31T03:44:39;6.15;;;1.05;;
74510;SDS011;62991;50.040;18.400;2023-07-31T03:47:40;1.77;;;1.10;;
74510;SDS011;62991;50.040;18.400;2023-07-31T03:50:41;3.22;;;1.27;;
74510;SDS011;62991;50.040;18.400;2023-07-31T03:53:42;3.35;;;1.20;;
74510;SDS011;62991;50.040;18.400;2023-07-31T03:56:43;3.38;;;1.20;;
74510;SDS011;62991;50.040;18.400;2023-07-31T03:59:43;1.65;;;1.02;;
74510;SDS011;62991;50.040;18.400;2023-07-31T04:02:44;3.83;;;1.27;;
74510;SDS011;62991;50.040;18.400;2023-07-31T04:05:45;2.40;;;1.23;;
74510;SDS011;62991;50.040;18.400;2023-07-31T04:08:45;2.30;;;1.10;;
74510;SDS011;62991;50.040;18.400;2023-07-31T04:11:46;2.05;;;1.20;;
74510;SDS011;62991;50.040;18.400;2023-07-31T04:14:47;3.38;;;1.20;;
74510;SDS011;62991;50.040;18.400;2023-07-31T04:17:47;2.28;;;1.45;;
74510;SDS011;62991;50.040;18.400;2023-07-31T04:20:48;2.72;;;1.55;;
74510;SDS011;62991;50.040;18.400;2023-07-31T04:23:48;2.05;;;1.00;;
74510;SDS011;62991;50.040;18.400;2023-07-31T04:26:52;3.33;;;1.30;;
74510;SDS011;62991;50.040;18.400;2023-07-31T04:29:53;2.83;;;1.40;;
74510;SDS011;62991;50.040;18.400;2023-07-31T04:32:54;3.67;;;1.20;;
74510;SDS011;62991;50.040;18.400;2023-07-31T04:35:55;3.22;;;1.27;;
74510;SDS011;62991;50.040;18.400;2023-07-31T04:38:55;3.08;;;1.20;;
74510;SDS011;62991;50.040;18.400;2023-07-31T04:41:56;2.20;;;1.08;;
74510;SDS011;62991;50.040;18.400;2023-07-31T04:44:57;2.25;;;1.20;;
74510;SDS011;62991;50.040;18.400;2023-07-31T04:47:57;6.72;;;1.40;;
74510;SDS011;62991;50.040;18.400;2023-07-31T04:50:58;4.72;;;1.70;;
74510;SDS011;62991;50.040;18.400;2023-07-31T04:53:59;3.25;;;1.38;;
74510;SDS011;62991;50.040;18.400;2023-07-31T04:56:59;3.13;;;1.20;;
74510;SDS011;62991;50.040;18.400;2023-07-31T05:00:00;4.32;;;1.17;;
74510;SDS011;62991;50.040;18.400;2023-07-31T05:03:00;2.15;;;1.23;;
74510;SDS011;62991;50.040;18.400;2023-07-31T05:06:01;3.88;;;1.73;;
74510;SDS011;62991;50.040;18.400;2023-07-31T05:09:02;7.97;;;1.40;;
74510;SDS011;62991;50.040;18.400;2023-07-31T05:12:04;3.45;;;1.55;;
74510;SDS011;62991;50.040;18.400;2023-07-31T05:15:05;5.28;;;1.45;;
74510;SDS011;62991;50.040;18.400;2023-07-31T05:18:06;1.88;;;1.05;;
74510;SDS011;62991;50.040;18.400;2023-07-31T05:21:07;4.35;;;1.45;;
74510;SDS011;62991;50.040;18.400;2023-07-31T05:24:08;2.10;;;1.40;;
74510;SDS011;62991;50.040;18.400;2023-07-31T05:27:10;3.05;;;1.40;;
74510;SDS011;62991;50.040;18.400;2023-07-31T05:30:10;3.25;;;1.63;;
74510;SDS011;62991;50.040;18.400;2023-07-31T05:33:11;1.85;;;1.38;;
74510;SDS011;62991;50.040;18.400;2023-07-31T05:36:12;5.80;;;1.70;;
74510;SDS011;62991;50.040;18.400;2023-07-31T05:39:12;7.32;;;1.48;;
74510;SDS011;62991;50.040;18.400;2023-07-31T05:42:13;2.83;;;1.42;;
74510;SDS011;62991;50.040;18.400;2023-07-31T05:45:14;4.30;;;1.40;;
74510;SDS011;62991;50.040;18.400;2023-07-31T05:48:15;2.45;;;1.40;;
74510;SDS011;62991;50.040;18.400;2023-07-31T05:51:15;3.25;;;1.30;;
74510;SDS011;62991;50.040;18.400;2023-07-31T05:54:16;4.97;;;1.60;;
74510;SDS011;62991;50.040;18.400;2023-07-31T05:57:16;2.90;;;1.50;;
74510;SDS011;62991;50.040;18.400;2023-07-31T06:00:17;4.97;;;1.60;;
74510;SDS011;62991;50.040;18.400;2023-07-31T06:03:18;4.72;;;1.63;;
74510;SDS011;62991;50.040;18.400;2023-07-31T06:06:18;2.05;;;1.10;;
74510;SDS011;62991;50.040;18.400;2023-07-31T06:09:20;2.88;;;1.88;;
74510;SDS011;62991;50.040;18.400;2023-07-31T06:12:20;2.65;;;1.27;;
74510;SDS011;62991;50.040;18.400;2023-07-31T06:15:21;2.20;;;1.30;;
74510;SDS011;62991;50.040;18.400;2023-07-31T06:18:22;6.65;;;1.67;;
74510;SDS011;62991;50.040;18.400;2023-07-31T06:21:22;3.45;;;1.50;;
74510;SDS011;62991;50.040;18.400;2023-07-31T06:24:23;3.88;;;1.33;;
74510;SDS011;62991;50.040;18.400;2023-07-31T06:27:24;5.35;;;1.30;;
74510;SDS011;62991;50.040;18.400;2023-07-31T06:30:24;3.13;;;1.20;;
74510;SDS011;62991;50.040;18.400;2023-07-31T06:33:25;3.22;;;1.10;;
74510;SDS011;62991;50.040;18.400;2023-07-31T06:36:26;3.65;;;1.58;;
74510;SDS011;62991;50.040;18.400;2023-07-31T06:39:27;2.08;;;1.20;;
74510;SDS011;62991;50.040;18.400;2023-07-31T06:42:27;4.70;;;1.35;;
74510;SDS011;62991;50.040;18.400;2023-07-31T06:45:28;2.20;;;1.23;;
74510;SDS011;62991;50.040;18.400;2023-07-31T06:48:28;5.07;;;1.67;;
74510;SDS011;62991;50.040;18.400;2023-07-31T06:51:29;4.97;;;1.40;;
74510;SDS011;62991;50.040;18.400;2023-07-31T06:54:31;3.70;;;1.38;;
74510;SDS011;62991;50.040;18.400;2023-07-31T06:57:32;5.78;;;1.25;;
74510;SDS011;62991;50.040;18.400;2023-07-31T07:00:32;3.25;;;2.00;;
74510;SDS011;62991;50.040;18.400;2023-07-31T07:03:33;6.82;;;1.48;;
74510;SDS011;62991;50.040;18.400;2023-07-31T07:06:34;3.40;;;1.35;;
74510;SDS011;62991;50.040;18.400;2023-07-31T07:09:34;3.88;;;1.60;;
74510;SDS011;62991;50.040;18.400;2023-07-31T07:12:35;2.58;;;1.20;;
74510;SDS011;62991;50.040;18.400;2023-07-31T07:15:36;4.93;;;1.65;;
74510;SDS011;62991;50.040;18.400;2023-07-31T07:18:37;4.72;;;1.30;;
74510;SDS011;62991;50.040;18.400;2023-07-31T07:21:38;3.17;;;1.40;;
74510;SDS011;62991;50.040;18.400;2023-07-31T07:24:38;2.40;;;1.42;;
74510;SDS011;62991;50.040;18.400;2023-07-31T07:27:39;2.28;;;1.20;;
74510;SDS011;62991;50.040;18.400;2023-07-31T07:30:39;3.45;;;1.20;;
74510;SDS011;62991;50.040;18.400;2023-07-31T07:33:40;4.18;;;1.55;;
74510;SDS011;62991;50.040;18.400;2023-07-31T07:36:41;3.72;;;1.40;;
74510;SDS011;62991;50.040;18.400;2023-07-31T07:39:41;4.20;;;1.60;;
74510;SDS011;62991;50.040;18.400;2023-07-31T07:42:42;2.03;;;1.13;;
74510;SDS011;62991;50.040;18.400;2023-07-31T07:45:43;2.20;;;1.42;;
74510;SDS011;62991;50.040;18.400;2023-07-31T07:48:43;5.50;;;1.40;;
74510;SDS011;62991;50.040;18.400;2023-07-31T07:51:44;3.30;;;1.33;;
74510;SDS011;62991;50.040;18.400;2023-07-31T07:54:45;4.25;;;1.45;;
74510;SDS011;62991;50.040;18.400;2023-07-31T07:57:45;2.80;;;1.35;;
74510;SDS011;62991;50.040;18.400;2023-07-31T08:00:50;4.82;;;1.48;;
74510;SDS011;62991;50.040;18.400;2023-07-31T08:03:51;2.13;;;1.20;;
74510;SDS011;62991;50.040;18.400;2023-07-31T08:06:51;6.25;;;1.65;;
74510;SDS011;62991;50.040;18.400;2023-07-31T08:09:52;5.03;;;1.45;;
74510;SDS011;62991;50.040;18.400;2023-07-31T08:12:53;4.25;;;1.40;;
74510;SDS011;62991;50.040;18.400;2023-07-31T08:15:53;1.95;;;1.20;;
74510;SDS011;62991;50.040;18.400;2023-07-31T08:18:54;1.92;;;1.25;;
74510;SDS011;62991;50.040;18.400;2023-07-31T08:21:55;5.32;;;1.42;;
74510;SDS011;62991;50.040;18.400;2023-07-31T08:24:55;3.33;;;1.20;;
74510;SDS011;62991;50.040;18.400;2023-07-31T08:27:56;3.65;;;1.48;;
74510;SDS011;62991;50.040;18.400;2023-07-31T08:30:57;2.33;;;1.50;;
74510;SDS011;62991;50.040;18.400;2023-07-31T08:33:57;3.15;;;1.50;;
74510;SDS011;62991;50.040;18.400;2023-07-31T08:36:58;2.83;;;1.23;;
74510;SDS011;62991;50.040;18.400;2023-07-31T08:40:00;2.42;;;1.20;;
74510;SDS011;62991;50.040;18.400;2023-07-31T08:43:01;4.28;;;1.20;;
74510;SDS011;62991;50.040;18.400;2023-07-31T08:46:02;4.75;;;1.55;;
74510;SDS011;62991;50.040;18.400;2023-07-31T08:49:06;2.90;;;1.50;;
74510;SDS011;62991;50.040;18.400;2023-07-31T08:52:07;6.78;;;2.30;;
74510;SDS011;62991;50.040;18.400;2023-07-31T08:55:08;4.47;;;1.60;;
74510;SDS011;62991;50.040;18.400;2023-07-31T08:58:09;4.80;;;2.03;;
74510;SDS011;62991;50.040;18.400;2023-07-31T09:01:13;2.90;;;1.65;;
74510;SDS011;62991;50.040;18.400;2023-07-31T09:04:14;4.95;;;1.67;;
74510;SDS011;62991;50.040;18.400;2023-07-31T09:07:17;7.20;;;2.08;;
74510;SDS011;62991;50.040;18.400;2023-07-31T09:10:18;6.80;;;1.73;;
74510;SDS011;62991;50.040;18.400;2023-07-31T09:13:19;2.70;;;1.65;;
74510;SDS011;62991;50.040;18.400;2023-07-31T09:16:26;3.22;;;1.90;;
74510;SDS011;62991;50.040;18.400;2023-07-31T09:19:33;5.25;;;1.98;;
74510;SDS011;62991;50.040;18.400;2023-07-31T09:22:40;2.35;;;1.42;;
74510;SDS011;62991;50.040;18.400;2023-07-31T09:25:45;4.28;;;1.50;;
74510;SDS011;62991;50.040;18.400;2023-07-31T09:28:46;2.58;;;1.48;;
74510;SDS011;62991;50.040;18.400;2023-07-31T09:31:47;2.88;;;1.42;;
74510;SDS011;62991;50.040;18.400;2023-07-31T09:34:47;5.47;;;1.45;;
74510;SDS011;62991;50.040;18.400;2023-07-31T09:37:51;2.90;;;1.40;;
74510;SDS011;62991;50.040;18.400;2023-07-31T09:40:53;4.93;;;1.80;;
74510;SDS011;62991;50.040;18.400;2023-07-31T09:43:54;3.83;;;1.65;;
74510;SDS011;62991;50.040;18.400;2023-07-31T09:46:55;7.97;;;2.13;;
74510;SDS011;62991;50.040;18.400;2023-07-31T09:49:55;5.22;;;2.50;;
74510;SDS011;62991;50.040;18.400;2023-07-31T09:52:56;4.53;;;1.90;;
74510;SDS011;62991;50.040;18.400;2023-07-31T09:55:57;2.80;;;1.63;;
74510;SDS011;62991;50.040;18.400;2023-07-31T09:58:59;3.15;;;1.70;;
74510;SDS011;62991;50.040;18.400;2023-07-31T10:02:02;3.20;;;1.40;;
74510;SDS011;62991;50.040;18.400;2023-07-31T10:05:03;5.03;;;1.73;;
74510;SDS011;62991;50.040;18.400;2023-07-31T10:08:06;3.33;;;1.92;;
74510;SDS011;62991;50.040;18.400;2023-07-31T10:11:09;2.42;;;1.63;;
74510;SDS011;62991;50.040;18.400;2023-07-31T10:14:10;4.75;;;2.55;;
74510;SDS011;62991;50.040;18.400;2023-07-31T10:17:11;2.80;;;1.30;;
74510;SDS011;62991;50.040;18.400;2023-07-31T10:20:14;4.63;;;1.75;;
74510;SDS011;62991;50.040;18.400;2023-07-31T10:23:18;5.20;;;1.80;;
74510;SDS011;62991;50.040;18.400;2023-07-31T10:26:19;4.10;;;1.70;;
74510;SDS011;62991;50.040;18.400;2023-07-31T10:29:23;2.05;;;1.27;;
74510;SDS011;62991;50.040;18.400;2023-07-31T10:32:25;4.03;;;1.85;;
74510;SDS011;62991;50.040;18.400;2023-07-31T10:35:27;6.47;;;1.35;;
74510;SDS011;62991;50.040;18.400;2023-07-31T10:38:28;3.63;;;1.50;;
74510;SDS011;62991;50.040;18.400;2023-07-31T10:41:31;3.47;;;1.30;;
74510;SDS011;62991;50.040;18.400;2023-07-31T10:44:32;3.25;;;1.35;;
74510;SDS011;62991;50.040;18.400;2023-07-31T10:47:37;7.13;;;1.40;;
74510;SDS011;62991;50.040;18.400;2023-07-31T10:50:46;4.45;;;1.40;;
74510;SDS011;62991;50.040;18.400;2023-07-31T10:53:47;2.75;;;1.20;;
74510;SDS011;62991;50.040;18.400;2023-07-31T10:56:51;3.40;;;1.30;;
74510;SDS011;62991;50.040;18.400;2023-07-31T10:59:52;4.85;;;1.25;;
74510;SDS011;62991;50.040;18.400;2023-07-31T11:03:20;2.63;;;1.17;;
74510;SDS011;62991;50.040;18.400;2023-07-31T11:06:29;1.77;;;1.05;;
74510;SDS011;62991;50.040;18.400;2023-07-31T11:09:31;2.80;;;1.27;;
74510;SDS011;62991;50.040;18.400;2023-07-31T11:12:33;3.92;;;1.20;;
74510;SDS011;62991;50.040;18.400;2023-07-31T11:15:34;3.88;;;1.10;;
74510;SDS011;62991;50.040;18.400;2023-07-31T11:18:35;4.00;;;1.30;;
74510;SDS011;62991;50.040;18.400;2023-07-31T11:21:36;5.20;;;1.85;;
74510;SDS011;62991;50.040;18.400;2023-07-31T11:24:37;3.40;;;1.15;;
74510;SDS011;62991;50.040;18.400;2023-07-31T11:27:41;3.40;;;1.10;;
74510;SDS011;62991;50.040;18.400;2023-07-31T11:30:43;2.83;;;1.30;;
74510;SDS011;62991;50.040;18.400;2023-07-31T11:33:45;3.85;;;1.50;;
74510;SDS011;62991;50.040;18.400;2023-07-31T11:36:53;7.88;;;2.50;;
74510;SDS011;62991;50.040;18.400;2023-07-31T11:40:02;2.38;;;0.95;;
74510;SDS011;62991;50.040;18.400;2023-07-31T11:43:04;5.90;;;1.55;;
74510;SDS011;62991;50.040;18.400;2023-07-31T11:46:04;3.92;;;1.20;;
74510;SDS011;62991;50.040;18.400;2023-07-31T11:49:06;3.40;;;1.10;;
74510;SDS011;62991;50.040;18.400;2023-07-31T11:52:08;4.40;;;1.23;;
74510;SDS011;62991;50.040;18.400;2023-07-31T11:55:09;2.75;;;1.10;;
74510;SDS011;62991;50.040;18.400;2023-07-31T11:58:11;2.13;;;1.10;;
74510;SDS011;62991;50.040;18.400;2023-07-31T12:01:14;2.65;;;1.40;;
74510;SDS011;62991;50.040;18.400;2023-07-31T12:04:19;2.28;;;1.35;;
74510;SDS011;62991;50.040;18.400;2023-07-31T12:07:21;2.75;;;1.38;;
74510;SDS011;62991;50.040;18.400;2023-07-31T12:10:28;4.13;;;1.00;;
74510;SDS011;62991;50.040;18.400;2023-07-31T12:13:30;1.35;;;1.02;;
74510;SDS011;62991;50.040;18.400;2023-07-31T12:16:32;2.80;;;1.17;;
74510;SDS011;62991;50.040;18.400;2023-07-31T12:19:33;1.42;;;0.90;;
74510;SDS011;62991;50.040;18.400;2023-07-31T12:22:35;1.70;;;1.10;;
74510;SDS011;62991;50.040;18.400;2023-07-31T12:25:35;3.47;;;1.10;;
74510;SDS011;62991;50.040;18.400;2023-07-31T12:28:37;2.58;;;0.90;;
74510;SDS011;62991;50.040;18.400;2023-07-31T12:31:41;2.50;;;1.02;;
74510;SDS011;62991;50.040;18.400;2023-07-31T12:34:42;2.05;;;0.90;;
74510;SDS011;62991;50.040;18.400;2023-07-31T12:37:43;3.75;;;1.00;;
74510;SDS011;62991;50.040;18.400;2023-07-31T12:40:44;4.10;;;1.10;;
74510;SDS011;62991;50.040;18.400;2023-07-31T12:43:45;2.08;;;1.08;;
74510;SDS011;62991;50.040;18.400;2023-07-31T12:46:45;2.63;;;1.55;;
74510;SDS011;62991;50.040;18.400;2023-07-31T12:49:46;4.72;;;1.45;;
74510;SDS011;62991;50.040;18.400;2023-07-31T12:52:47;2.70;;;1.23;;
74510;SDS011;62991;50.040;18.400;2023-07-31T12:55:47;2.25;;;1.13;;
74510;SDS011;62991;50.040;18.400;2023-07-31T12:58:48;3.55;;;1.20;;
74510;SDS011;62991;50.040;18.400;2023-07-31T13:01:49;4.18;;;1.40;;
74510;SDS011;62991;50.040;18.400;2023-07-31T13:04:50;2.38;;;1.05;;
74510;SDS011;62991;50.040;18.400;2023-07-31T13:07:51;1.83;;;1.00;;
74510;SDS011;62991;50.040;18.400;2023-07-31T13:10:51;1.50;;;0.88;;
74510;SDS011;62991;50.040;18.400;2023-07-31T13:13:52;3.70;;;1.05;;
74510;SDS011;62991;50.040;18.400;2023-07-31T13:16:52;1.60;;;0.80;;
74510;SDS011;62991;50.040;18.400;2023-07-31T13:19:53;3.05;;;1.10;;
74510;SDS011;62991;50.040;18.400;2023-07-31T13:22:54;2.58;;;1.02;;
74510;SDS011;62991;50.040;18.400;2023-07-31T13:25:54;1.15;;;0.80;;
74510;SDS011;62991;50.040;18.400;2023-07-31T13:28:55;2.17;;;1.08;;
74510;SDS011;62991;50.040;18.400;2023-07-31T13:31:56;1.67;;;0.80;;
74510;SDS011;62991;50.040;18.400;2023-07-31T13:34:56;2.72;;;1.17;;
74510;SDS011;62991;50.040;18.400;2023-07-31T13:37:57;1.35;;;0.73;;
74510;SDS011;62991;50.040;18.400;2023-07-31T13:40:57;3.03;;;0.80;;
74510;SDS011;62991;50.040;18.400;2023-07-31T13:43:58;1.83;;;0.85;;
74510;SDS011;62991;50.040;18.400;2023-07-31T13:46:59;1.88;;;0.70;;
74510;SDS011;62991;50.040;18.400;2023-07-31T13:50:00;2.45;;;0.80;;
74510;SDS011;62991;50.040;18.400;2023-07-31T13:53:01;1.25;;;0.73;;
74510;SDS011;62991;50.040;18.400;2023-07-31T13:56:01;1.00;;;0.70;;
74510;SDS011;62991;50.040;18.400;2023-07-31T13:59:02;2.17;;;1.20;;
74510;SDS011;62991;50.040;18.400;2023-07-31T14:02:03;1.85;;;1.00;;
74510;SDS011;62991;50.040;18.400;2023-07-31T14:05:04;1.40;;;0.70;;
74510;SDS011;62991;50.040;18.400;2023-07-31T14:08:04;7.00;;;0.90;;
74510;SDS011;62991;50.040;18.400;2023-07-31T14:11:05;2.20;;;0.95;;
74510;SDS011;62991;50.040;18.400;2023-07-31T14:14:06;9.18;;;1.23;;
74510;SDS011;62991;50.040;18.400;2023-07-31T14:17:08;5.97;;;0.80;;
74510;SDS011;62991;50.040;18.400;2023-07-31T14:20:09;2.17;;;1.17;;
74510;SDS011;62991;50.040;18.400;2023-07-31T14:23:10;1.75;;;1.00;;
74510;SDS011;62991;50.040;18.400;2023-07-31T14:26:11;2.95;;;1.38;;
74510;SDS011;62991;50.040;18.400;2023-07-31T14:29:12;1.75;;;0.90;;
74510;SDS011;62991;50.040;18.400;2023-07-31T14:32:12;2.53;;;1.08;;
74510;SDS011;62991;50.040;18.400;2023-07-31T14:35:13;1.52;;;0.90;;
74510;SDS011;62991;50.040;18.400;2023-07-31T14:38:13;2.03;;;1.00;;
74510;SDS011;62991;50.040;18.400;2023-07-31T14:41:14;2.85;;;1.00;;
74510;SDS011;62991;50.040;18.400;2023-07-31T14:44:15;2.45;;;1.00;;
74510;SDS011;62991;50.040;18.400;2023-07-31T14:47:15;2.65;;;1.10;;
74510;SDS011;62991;50.040;18.400;2023-07-31T14:50:16;2.40;;;1.15;;
74510;SDS011;62991;50.040;18.400;2023-07-31T14:53:17;7.00;;;1.10;;
74510;SDS011;62991;50.040;18.400;2023-07-31T14:56:17;2.22;;;1.00;;
74510;SDS011;62991;50.040;18.400;2023-07-31T14:59:18;2.30;;;0.90;;
74510;SDS011;62991;50.040;18.400;2023-07-31T15:02:19;4.93;;;1.20;;
74510;SDS011;62991;50.040;18.400;2023-07-31T15:05:19;2.45;;;1.00;;
74510;SDS011;62991;50.040;18.400;2023-07-31T15:08:20;2.63;;;0.93;;
74510;SDS011;62991;50.040;18.400;2023-07-31T15:11:21;1.98;;;0.98;;
74510;SDS011;62991;50.040;18.400;2023-07-31T15:14:22;2.33;;;0.88;;
74510;SDS011;62991;50.040;18.400;2023-07-31T15:17:22;1.60;;;0.95;;
74510;SDS011;62991;50.040;18.400;2023-07-31T15:20:24;2.80;;;1.08;;
74510;SDS011;62991;50.040;18.400;2023-07-31T15:23:24;1.75;;;1.10;;
74510;SDS011;62991;50.040;18.400;2023-07-31T15:26:26;1.92;;;1.05;;
74510;SDS011;62991;50.040;18.400;2023-07-31T15:29:27;2.72;;;1.27;;
74510;SDS011;62991;50.040;18.400;2023-07-31T15:32:28;5.80;;;1.20;;
74510;SDS011;62991;50.040;18.400;2023-07-31T15:35:28;3.25;;;1.10;;
74510;SDS011;62991;50.040;18.400;2023-07-31T15:38:29;2.30;;;1.20;;
74510;SDS011;62991;50.040;18.400;2023-07-31T15:41:30;2.35;;;1.02;;
74510;SDS011;62991;50.040;18.400;2023-07-31T15:44:30;2.15;;;1.00;;
74510;SDS011;62991;50.040;18.400;2023-07-31T15:47:31;2.05;;;0.88;;
74510;SDS011;62991;50.040;18.400;2023-07-31T15:50:32;1.95;;;1.00;;
74510;SDS011;62991;50.040;18.400;2023-07-31T15:53:32;4.25;;;1.20;;
74510;SDS011;62991;50.040;18.400;2023-07-31T15:56:33;6.63;;;1.25;;
74510;SDS011;62991;50.040;18.400;2023-07-31T15:59:34;3.10;;;1.20;;
74510;SDS011;62991;50.040;18.400;2023-07-31T16:02:34;2.60;;;1.15;;
74510;SDS011;62991;50.040;18.400;2023-07-31T16:05:35;2.60;;;1.13;;
74510;SDS011;62991;50.040;18.400;2023-07-31T16:08:36;1.80;;;0.90;;
74510;SDS011;62991;50.040;18.400;2023-07-31T16:11:41;2.13;;;1.00;;
74510;SDS011;62991;50.040;18.400;2023-07-31T16:14:42;1.55;;;0.65;;
74510;SDS011;62991;50.040;18.400;2023-07-31T16:17:43;2.70;;;0.93;;
74510;SDS011;62991;50.040;18.400;2023-07-31T16:20:43;5.47;;;1.10;;
74510;SDS011;62991;50.040;18.400;2023-07-31T16:23:44;1.55;;;0.90;;
74510;SDS011;62991;50.040;18.400;2023-07-31T16:26:45;2.85;;;1.50;;
74510;SDS011;62991;50.040;18.400;2023-07-31T16:29:45;2.13;;;1.10;;
74510;SDS011;62991;50.040;18.400;2023-07-31T16:32:46;3.47;;;1.05;;
74510;SDS011;62991;50.040;18.400;2023-07-31T16:35:49;2.17;;;1.00;;
74510;SDS011;62991;50.040;18.400;2023-07-31T16:38:50;1.70;;;0.90;;
74510;SDS011;62991;50.040;18.400;2023-07-31T16:41:51;3.42;;;1.42;;
74510;SDS011;62991;50.040;18.400;2023-07-31T16:44:52;2.33;;;1.20;;
74510;SDS011;62991;50.040;18.400;2023-07-31T16:47:52;4.35;;;1.30;;
74510;SDS011;62991;50.040;18.400;2023-07-31T16:50:53;1.70;;;1.00;;
74510;SDS011;62991;50.040;18.400;2023-07-31T16:53:53;1.98;;;0.90;;
74510;SDS011;62991;50.040;18.400;2023-07-31T16:56:54;3.00;;;1.10;;
74510;SDS011;62991;50.040;18.400;2023-07-31T16:59:55;3.95;;;1.35;;
74510;SDS011;62991;50.040;18.400;2023-07-31T17:02:56;2.40;;;1.20;;
74510;SDS011;62991;50.040;18.400;2023-07-31T17:05:56;1.75;;;1.00;;
74510;SDS011;62991;50.040;18.400;2023-07-31T17:08:57;2.58;;;1.30;;
74510;SDS011;62991;50.040;18.400;2023-07-31T17:11:58;2.10;;;1.17;;
74510;SDS011;62991;50.040;18.400;2023-07-31T17:14:59;3.85;;;1.20;;
74510;SDS011;62991;50.040;18.400;2023-07-31T17:18:00;4.57;;;1.02;;
74510;SDS011;62991;50.040;18.400;2023-07-31T17:21:01;2.10;;;1.10;;
74510;SDS011;62991;50.040;18.400;2023-07-31T17:24:01;4.35;;;1.40;;
74510;SDS011;62991;50.040;18.400;2023-07-31T17:27:02;2.30;;;1.02;;
74510;SDS011;62991;50.040;18.400;2023-07-31T17:30:04;5.28;;;1.45;;
74510;SDS011;62991;50.040;18.400;2023-07-31T17:33:06;3.13;;;1.20;;
74510;SDS011;62991;50.040;18.400;2023-07-31T17:36:07;2.45;;;1.08;;
74510;SDS011;62991;50.040;18.400;2023-07-31T17:39:08;4.43;;;1.92;;
74510;SDS011;62991;50.040;18.400;2023-07-31T17:42:18;6.28;;;2.33;;
74510;SDS011;62991;50.040;18.400;2023-07-31T17:45:19;6.10;;;2.40;;
74510;SDS011;62991;50.040;18.400;2023-07-31T17:48:21;7.55;;;2.25;;
74510;SDS011;62991;50.040;18.400;2023-07-31T17:51:21;4.60;;;1.95;;
74510;SDS011;62991;50.040;18.400;2023-07-31T17:54:22;4.18;;;1.65;;
74510;SDS011;62991;50.040;18.400;2023-07-31T17:57:25;3.78;;;1.73;;
74510;SDS011;62991;50.040;18.400;2023-07-31T18:00:26;6.25;;;2.03;;
74510;SDS011;62991;50.040;18.400;2023-07-31T18:03:27;2.75;;;1.40;;
74510;SDS011;62991;50.040;18.400;2023-07-31T18:06:27;2.72;;;1.20;;